LRTR - TIMISOARA / TRAIAN VUIA

Compiled: 11:35:51 on 21/04/2018

Latest METAR/SPECI Reports

METAR LRTR 211130Z 19004KT 140V240 9999 FEW045 22/09 Q1021 NOSIG=

Previous reports

METAR LRTR 211100Z 19005KT 140V230 CAVOK 22/09 Q1021 NOSIG=
METAR LRTR 211030Z 20005KT 150V240 CAVOK 21/10 Q1021 NOSIG=
METAR LRTR 211000Z 17005KT 130V240 CAVOK 20/12 Q1022 NOSIG=
METAR LRTR 210930Z 19007KT CAVOK 19/11 Q1022 NOSIG=

Latest TAF report

TAF LRTR 211100Z 2112/2212 VRB04KT CAVOK=

Valid WARNINGS

No valid warnings for LRTR